Time;durP1;ratioP1;P1;durP2;ratioP2;P2;SDS_P1;SDS_P2;PMS_P1;PMS_P2;Temp;Humidity;BMP_temperature;BMP_pressure;BME280_temperature;BME280_humidity;BME280_pressure;Samples;Min_cycle;Max_cycle;Signal;HPM_P1;HPM_P2
2022/09/19 00:03:15;;;;;;;18.00;3.10;;;16.70;69.50;;;;;;10504848;28;20048;-37
2022/09/19 00:08:18;;;;;;;1.52;0.65;;;16.00;68.60;;;;;;10501834;28;20459;-40
2022/09/19 00:13:20;;;;;;;13.55;2.03;;;17.40;68.10;;;;;;10505926;28;20609;-37
2022/09/19 00:18:22;;;;;;;6.73;1.37;;;16.90;67.90;;;;;;10504237;28;20395;-37
2022/09/19 00:28:45;;;;;;;5.65;1.08;;;16.50;71.60;;;;;;10499284;28;20048;-39
2022/09/19 00:33:48;;;;;;;;;;;17.30;67.70;;;;;;10508153;28;20505;-36
2022/09/19 00:38:51;;;;;;;7.22;1.30;;;17.60;66.20;;;;;;10503781;28;20377;-40
2022/09/19 00:43:55;;;;;;;5.50;1.65;;;17.60;65.50;;;;;;10496981;28;20056;-38
2022/09/19 00:49:00;;;;;;;6.15;1.00;;;17.20;68.40;;;;;;10503601;28;20084;-37
2022/09/19 00:54:09;;;;;;;5.53;0.90;;;17.00;67.70;;;;;;10518319;28;20056;-38
2022/09/19 00:59:12;;;;;;;9.38;0.80;;;17.60;64.20;;;;;;10502082;28;20465;-39
2022/09/19 01:04:15;;;;;;;3.45;1.10;;;17.10;67.80;;;;;;10503568;28;20051;-39
2022/09/19 01:09:31;;;;;;;8.40;1.15;;;16.10;70.20;;;;;;10512708;28;20043;-39
2022/09/19 01:14:53;;;;;;;16.35;1.67;;;16.70;66.10;;;;;;10512546;28;20090;-39
2022/09/19 01:20:38;;;;;;;10.20;1.70;;;16.30;67.90;;;;;;10504415;28;20040;-40
2022/09/19 01:25:49;;;;;;;7.53;1.17;;;16.40;68.80;;;;;;10498239;28;20064;-38
2022/09/19 01:36:16;;;;;;;16.40;2.33;;;16.10;71.20;;;;;;10501700;28;20048;-37
2022/09/19 01:41:19;;;;;;;6.32;0.93;;;16.40;66.90;;;;;;10490448;28;20456;-38
2022/09/19 01:46:31;;;;;;;13.98;1.65;;;16.30;71.00;;;;;;10505532;28;20049;-38
2022/09/19 01:51:38;;;;;;;13.20;1.77;;;17.00;66.80;;;;;;10515331;28;20481;-38
2022/09/19 01:56:46;;;;;;;6.07;1.05;;;17.30;65.20;;;;;;10528864;28;20377;-38
2022/09/19 02:01:55;;;;;;;8.35;1.23;;;18.00;63.60;;;;;;10522486;28;20090;-38
2022/09/19 02:07:03;;;;;;;3.85;0.80;;;17.60;62.90;;;;;;10503544;28;20494;-38
2022/09/19 02:12:09;;;;;;;12.30;1.60;;;17.80;63.30;;;;;;10519826;28;20479;-39
2022/09/19 02:17:16;;;;;;;19.60;1.95;;;17.60;64.30;;;;;;10521922;28;20070;-38
2022/09/19 02:22:27;;;;;;;6.10;0.98;;;16.80;64.30;;;;;;10516781;28;20235;-40
2022/09/19 02:27:38;;;;;;;7.35;1.08;;;16.40;67.00;;;;;;10518332;28;20045;-38
2022/09/19 02:32:46;;;;;;;9.15;1.73;;;16.30;68.30;;;;;;10526445;28;20047;-37
2022/09/19 02:37:55;;;;;;;4.10;1.02;;;16.80;66.50;;;;;;10526170;28;20074;-39
2022/09/19 02:43:03;;;;;;;5.53;1.20;;;16.90;67.20;;;;;;10527063;28;20130;-40
2022/09/19 02:48:13;;;;;;;7.68;1.15;;;17.40;65.70;;;;;;10529989;28;20048;-40
2022/09/19 02:53:18;;;;;;;5.63;1.23;;;16.80;67.50;;;;;;10530699;28;20075;-38
2022/09/19 02:58:23;;;;;;;7.32;1.02;;;17.70;64.30;;;;;;10521832;28;20945;-38
2022/09/19 03:08:54;;;;;;;6.38;1.38;;;16.30;65.50;;;;;;10535550;28;20055;-37
2022/09/19 03:13:59;;;;;;;6.68;1.30;;;16.40;68.60;;;;;;10534910;28;20094;-38
2022/09/19 03:19:04;;;;;;;2.85;0.82;;;16.80;69.50;;;;;;10496799;28;20105;-39
2022/09/19 03:24:07;;;;;;;4.00;0.98;;;17.10;64.00;;;;;;10478412;28;20049;-37
2022/09/19 03:29:10;;;;;;;6.90;0.90;;;15.70;71.10;;;;;;10487495;28;20051;-38
2022/09/19 03:34:13;;;;;;;9.55;1.33;;;16.90;65.30;;;;;;10489963;28;20043;-39
2022/09/19 03:39:15;;;;;;;1.90;0.65;;;16.70;56.90;;;;;;10479860;28;20131;-40
2022/09/19 03:44:19;;;;;;;6.65;0.93;;;17.20;65.80;;;;;;10478740;28;20088;-39
2022/09/19 03:49:22;;;;;;;1.38;0.60;;;17.80;63.00;;;;;;10475584;28;20492;-39
2022/09/19 03:54:24;;;;;;;4.35;0.85;;;18.10;63.00;;;;;;10485385;28;20074;-39
2022/09/19 03:59:26;;;;;;;4.75;0.70;;;18.20;61.80;;;;;;10470510;28;20048;-37
2022/09/19 04:04:29;;;;;;;5.88;1.13;;;18.30;61.60;;;;;;10475349;28;20495;-39
2022/09/19 04:09:31;;;;;;;2.95;0.68;;;17.80;61.90;;;;;;10481833;28;20118;-38
2022/09/19 04:14:34;;;;;;;5.90;0.80;;;17.90;62.20;;;;;;10471863;28;20044;-38
2022/09/19 04:19:37;;;;;;;3.95;0.80;;;18.20;62.10;;;;;;10524150;28;20094;-37
2022/09/19 04:24:42;;;;;;;3.38;0.63;;;18.20;61.20;;;;;;10506557;28;20569;-40
2022/09/19 04:29:44;;;;;;;2.55;0.52;;;17.60;61.30;;;;;;10505054;28;20642;-38
2022/09/19 04:34:49;;;;;;;7.10;0.90;;;17.70;59.70;;;;;;10509868;28;20140;-41
2022/09/19 04:39:51;;;;;;;4.32;0.90;;;16.70;64.40;;;;;;10517542;28;20174;-38
2022/09/19 04:44:53;;;;;;;13.10;1.00;;;16.40;65.70;;;;;;10509346;28;20079;-39
2022/09/19 04:49:57;;;;;;;;;;;16.40;60.80;;;;;;10508455;28;20039;-39
2022/09/19 04:54:59;;;;;;;4.57;0.90;;;17.10;64.50;;;;;;10518388;28;19920;-38
2022/09/19 05:00:01;;;;;;;10.30;0.97;;;16.80;64.10;;;;;;10526867;28;20185;-38
2022/09/19 05:05:06;;;;;;;2.75;0.47;;;17.90;61.30;;;;;;10508402;28;20098;-39
2022/09/19 05:10:09;;;;;;;14.27;1.60;;;18.10;63.20;;;;;;10509359;28;20134;-39
2022/09/19 05:15:11;;;;;;;4.88;1.35;;;17.10;58.90;;;;;;10532016;28;20075;-38
2022/09/19 05:20:14;;;;;;;6.97;0.98;;;18.00;58.80;;;;;;10528657;28;20071;-40
2022/09/19 05:25:17;;;;;;;5.80;0.95;;;17.40;62.20;;;;;;10510546;28;20588;-39
2022/09/19 05:30:21;;;;;;;;;;;16.40;62.20;;;;;;10523815;28;20036;-39
2022/09/19 05:35:25;;;;;;;2.47;0.82;;;16.40;68.90;;;;;;10536148;28;20023;-39
2022/09/19 05:40:27;;;;;;;5.72;1.10;;;16.70;67.40;;;;;;10514446;28;20067;-38
2022/09/19 05:45:29;;;;;;;7.05;0.95;;;16.90;66.40;;;;;;10506079;28;20123;-39
2022/09/19 05:50:32;;;;;;;4.80;1.50;;;17.40;64.30;;;;;;10512847;28;20036;-37
2022/09/19 05:55:35;;;;;;;8.20;1.10;;;17.30;61.80;;;;;;10506640;28;20583;-38
2022/09/19 06:00:37;;;;;;;7.57;2.35;;;16.90;62.00;;;;;;10503047;28;20412;-37
2022/09/19 06:05:43;;;;;;;10.00;1.83;;;16.70;64.30;;;;;;10506777;28;20063;-37
2022/09/19 06:10:46;;;;;;;11.77;3.10;;;16.90;59.50;;;;;;10510347;28;20044;-37
2022/09/19 06:15:48;;;;;;;14.90;2.50;;;17.70;62.80;;;;;;10512467;28;20061;-42
2022/09/19 06:20:53;;;;;;;7.97;2.17;;;17.20;60.40;;;;;;10549630;28;20192;-37
2022/09/19 06:25:54;;;;;;;5.63;1.10;;;17.50;62.90;;;;;;10534238;28;20469;-37
2022/09/19 06:31:01;;;;;;;4.47;1.47;;;17.10;57.30;;;;;;10536603;28;20101;-39
2022/09/19 06:36:05;;;;;;;5.78;2.00;;;17.50;63.40;;;;;;10531529;28;20551;-40
2022/09/19 06:41:07;;;;;;;5.80;1.60;;;17.30;64.40;;;;;;10516872;28;20133;-39
2022/09/19 06:46:10;;;;;;;2.95;0.85;;;17.80;62.20;;;;;;10538802;28;20589;-39
2022/09/19 06:51:13;;;;;;;3.05;1.10;;;17.10;57.60;;;;;;10532617;28;20068;-37
2022/09/19 06:56:15;;;;;;;5.28;1.73;;;17.60;63.00;;;;;;10509187;28;20052;-35
2022/09/19 07:01:17;;;;;;;9.00;1.17;;;17.90;61.50;;;;;;10525853;28;20123;-35
2022/09/19 07:06:20;;;;;;;8.07;1.58;;;17.90;54.60;;;;;;10529261;28;20498;-35
2022/09/19 07:11:23;;;;;;;5.63;1.10;;;17.00;58.70;;;;;;10520487;28;20511;-33
2022/09/19 07:16:25;;;;;;;10.73;1.33;;;16.50;62.30;;;;;;10524550;28;20560;-35
2022/09/19 07:21:28;;;;;;;16.83;2.35;;;16.60;58.00;;;;;;10518187;28;20071;-33
2022/09/19 07:26:30;;;;;;;6.55;1.90;;;16.30;62.40;;;;;;10513358;28;20119;-35
2022/09/19 07:31:32;;;;;;;7.70;1.13;;;17.20;64.50;;;;;;10528262;28;20044;-33
2022/09/19 07:36:35;;;;;;;7.30;0.88;;;16.90;59.00;;;;;;10532828;28;20584;-33
2022/09/19 07:41:37;;;;;;;15.32;1.70;;;16.60;62.10;;;;;;10510995;28;20101;-34
2022/09/19 07:47:26;;;;;;;11.47;2.87;;;16.80;59.90;;;;;;10504865;28;20500;-35
2022/09/19 07:52:03;;;;;;;15.00;3.75;;;17.50;63.40;;;;;;10496158;28;20046;-34
2022/09/19 07:57:05;;;;;;;16.70;1.30;;;17.70;60.00;;;;;;10496543;28;20064;-35
2022/09/19 08:02:09;;;;;;;6.10;1.88;;;16.70;63.70;;;;;;10504758;28;20117;-34
2022/09/19 08:07:12;;;;;;;5.68;1.40;;;16.80;63.30;;;;;;10501660;28;20470;-36
2022/09/19 08:12:14;;;;;;;7.75;1.70;;;16.40;59.70;;;;;;10503967;28;20040;-34
2022/09/19 08:17:16;;;;;;;3.83;1.13;;;16.30;62.50;;;;;;10509935;28;20497;-34
2022/09/19 08:22:22;;;;;;;3.42;1.27;;;16.80;64.10;;;;;;10496801;28;20048;-34
2022/09/19 08:27:24;;;;;;;7.40;2.00;;;17.60;62.80;;;;;;10508266;28;20097;-34
2022/09/19 08:32:27;;;;;;;4.72;1.25;;;17.30;64.20;;;;;;10505613;28;20133;-35
2022/09/19 08:37:31;;;;;;;5.00;1.10;;;17.00;60.00;;;;;;10511851;28;20051;-34
2022/09/19 08:42:40;;;;;;;7.47;1.48;;;16.40;65.40;;;;;;10497762;28;20409;-35
2022/09/19 08:47:44;;;;;;;8.27;1.17;;;16.40;63.60;;;;;;10495509;28;20105;-34
2022/09/19 08:52:50;;;;;;;3.90;1.10;;;16.90;66.00;;;;;;10498839;28;20040;-34
2022/09/19 08:57:55;;;;;;;3.80;0.45;;;16.80;64.70;;;;;;10501741;28;20134;-34
2022/09/19 09:03:00;;;;;;;7.38;1.27;;;16.50;59.20;;;;;;10512735;28;20148;-34
2022/09/19 09:08:12;;;;;;;4.28;1.30;;;16.90;61.20;;;;;;10511051;28;20472;-34
2022/09/19 09:13:24;;;;;;;4.93;1.02;;;16.70;61.90;;;;;;10510359;28;20147;-35
2022/09/19 09:18:45;;;;;;;5.85;1.60;;;17.10;63.30;;;;;;10527863;28;20447;-34
2022/09/19 09:23:51;;;;;;;6.03;2.17;;;16.70;62.80;;;;;;10511392;28;20062;-35
2022/09/19 09:28:58;;;;;;;3.40;1.80;;;16.90;60.30;;;;;;10514929;28;20048;-33
2022/09/19 09:34:06;;;;;;;4.07;1.00;;;17.20;65.10;;;;;;10517391;28;20040;-35
2022/09/19 09:39:18;;;;;;;12.85;0.73;;;16.70;61.20;;;;;;10515126;28;20049;-34
2022/09/19 09:44:30;;;;;;;10.25;1.35;;;17.20;58.10;;;;;;10499338;28;20052;-32
2022/09/19 09:49:33;;;;;;;;;;;16.70;60.50;;;;;;10525523;28;20085;-34
2022/09/19 10:05:45;;;;;;;7.70;1.35;;;17.10;61.20;;;;;;10494472;28;20409;-33
2022/09/19 10:10:53;;;;;;;3.90;1.73;;;17.20;60.60;;;;;;10517461;28;20082;-35
2022/09/19 10:15:57;;;;;;;4.60;1.27;;;17.60;59.00;;;;;;10520639;28;20047;-34
2022/09/19 10:20:58;;;;;;;4.60;1.00;;;17.50;58.10;;;;;;10530632;28;20561;-35
2022/09/19 10:26:03;;;;;;;4.93;1.60;;;17.60;62.30;;;;;;10513381;28;20106;-35
2022/09/19 10:31:07;;;;;;;4.97;0.98;;;17.60;59.10;;;;;;10508325;28;20071;-34
2022/09/19 10:36:20;;;;;;;4.93;0.70;;;17.60;58.40;;;;;;10521109;28;20066;-35
2022/09/19 10:41:25;;;;;;;6.90;1.23;;;17.40;57.30;;;;;;10516162;28;20137;-33
2022/09/19 10:46:31;;;;;;;5.95;0.82;;;17.60;62.70;;;;;;10511807;28;20487;-34
2022/09/19 10:51:36;;;;;;;7.05;0.90;;;17.70;57.70;;;;;;10522700;28;20155;-34
2022/09/19 10:56:40;;;;;;;6.75;0.73;;;17.70;54.20;;;;;;10514343;28;20040;-34
2022/09/19 11:01:42;;;;;;;5.50;1.30;;;17.40;54.00;;;;;;10510796;28;20121;-33
2022/09/19 11:06:58;;;;;;;9.17;1.10;;;17.80;56.80;;;;;;10515144;28;20052;-34
2022/09/19 11:12:06;;;;;;;4.22;1.30;;;17.60;55.50;;;;;;10510968;28;20142;-34
2022/09/19 11:17:37;;;;;;;2.33;0.90;;;17.70;59.90;;;;;;10523236;28;20052;-33
2022/09/19 11:22:53;;;;;;;6.03;1.13;;;18.20;61.30;;;;;;10527878;28;20048;-34
2022/09/19 11:28:12;;;;;;;4.40;1.00;;;18.40;58.10;;;;;;10528901;28;20055;-35
2022/09/19 11:33:38;;;;;;;10.20;1.45;;;17.70;62.20;;;;;;10533936;28;20055;-34
2022/09/19 11:38:52;;;;;;;6.70;1.08;;;18.10;61.80;;;;;;10517087;28;20128;-35
2022/09/19 11:44:15;;;;;;;4.18;0.90;;;18.30;57.60;;;;;;10512255;28;20076;-36
2022/09/19 11:49:38;;;;;;;5.80;0.93;;;18.90;58.80;;;;;;10526555;28;20412;-35
2022/09/19 11:55:01;;;;;;;3.90;0.95;;;18.20;60.70;;;;;;10520750;28;20084;-35
2022/09/19 12:00:13;;;;;;;;;;;18.20;59.10;;;;;;10523033;28;20076;-35
2022/09/19 12:05:23;;;;;;;3.70;0.90;;;17.60;61.90;;;;;;10535428;28;19988;-35
2022/09/19 12:10:31;;;;;;;3.33;0.80;;;18.90;60.40;;;;;;10517031;28;20044;-33
2022/09/19 12:15:39;;;;;;;8.10;1.10;;;18.60;60.10;;;;;;10510736;28;20139;-35
2022/09/19 12:20:45;;;;;;;2.30;0.80;;;18.50;56.80;;;;;;10527751;28;20056;-35
2022/09/19 12:25:48;;;;;;;5.32;1.50;;;18.70;62.20;;;;;;10522042;28;20094;-32
2022/09/19 12:30:58;;;;;;;3.70;0.63;;;17.90;62.30;;;;;;10526193;28;20571;-35
2022/09/19 12:36:06;;;;;;;11.98;1.40;;;19.20;61.10;;;;;;10526538;28;20044;-36
2022/09/19 12:41:15;;;;;;;5.03;0.80;;;19.10;61.60;;;;;;10521568;28;20041;-35
2022/09/19 12:46:35;;;;;;;5.20;0.95;;;19.90;58.00;;;;;;10486365;28;20053;-35
2022/09/19 12:51:49;;;;;;;6.97;1.27;;;19.70;58.90;;;;;;10504270;28;20040;-34
2022/09/19 12:56:57;;;;;;;10.68;0.90;;;19.40;63.50;;;;;;10517482;28;20751;-34
2022/09/19 13:02:09;;;;;;;4.63;0.90;;;18.70;63.10;;;;;;10515908;28;20068;-34
2022/09/19 13:07:15;;;;;;;9.20;1.10;;;18.80;65.70;;;;;;10510013;28;20447;-34
2022/09/19 13:12:25;;;;;;;3.78;1.60;;;17.90;68.20;;;;;;10517511;28;20106;-35
2022/09/19 13:28:26;;;;;;;;;;;18.60;67.90;;;;;;10497950;28;20083;-34
2022/09/19 13:33:44;;;;;;;8.57;1.00;;;18.60;68.10;;;;;;10519055;28;20265;-34
2022/09/19 13:38:47;;;;;;;4.95;0.80;;;18.50;68.50;;;;;;10521245;28;20119;-35
2022/09/19 13:44:06;;;;;;;6.63;0.60;;;18.60;66.90;;;;;;10522075;28;20176;-34
2022/09/19 13:49:18;;;;;;;2.80;0.70;;;19.20;65.20;;;;;;10509990;28;20105;-35
2022/09/19 13:54:37;;;;;;;2.50;0.70;;;19.30;65.10;;;;;;10494721;28;20056;-34
2022/09/19 13:59:42;;;;;;;1.23;0.60;;;19.60;66.70;;;;;;10503235;28;20846;-35
2022/09/19 14:04:54;;;;;;;4.45;0.60;;;18.70;71.10;;;;;;10500289;28;20051;-34
2022/09/19 14:09:58;;;;;;;3.20;0.73;;;17.80;75.00;;;;;;10491725;28;20048;-36
2022/09/19 14:14:59;;;;;;;3.38;1.33;;;18.20;75.70;;;;;;10489894;28;20045;-35
2022/09/19 14:20:24;;;;;;;2.17;0.77;;;18.80;70.90;;;;;;10493230;28;20043;-32
2022/09/19 14:25:27;;;;;;;3.28;1.10;;;18.20;73.90;;;;;;10489212;28;20935;-36
2022/09/19 14:31:01;;;;;;;2.58;1.10;;;18.70;72.60;;;;;;10493147;28;20044;-37
2022/09/19 14:36:14;;;;;;;3.38;1.20;;;17.80;75.60;;;;;;10505478;28;20403;-33
2022/09/19 14:41:24;;;;;;;7.20;1.20;;;16.20;81.40;;;;;;10529684;28;20528;-36
2022/09/19 14:46:28;;;;;;;3.75;0.82;;;17.90;76.10;;;;;;10517635;28;20528;-34
2022/09/19 14:51:40;;;;;;;6.28;1.05;;;17.30;78.10;;;;;;10518294;28;20134;-35
2022/09/19 14:56:53;;;;;;;3.58;0.90;;;18.50;74.20;;;;;;10518545;28;20560;-33
2022/09/19 15:02:06;;;;;;;3.60;0.80;;;18.30;74.30;;;;;;10515613;28;20049;-34
2022/09/19 15:07:11;;;;;;;11.23;1.30;;;17.10;78.40;;;;;;10524731;28;20547;-35
2022/09/19 15:12:15;;;;;;;1.45;0.82;;;17.00;79.20;;;;;;10530066;28;20127;-33
2022/09/19 15:17:20;;;;;;;3.67;1.23;;;18.40;74.10;;;;;;10509423;28;20045;-35
2022/09/19 15:22:31;;;;;;;3.83;1.52;;;20.20;65.80;;;;;;10507202;28;20047;-33
2022/09/19 15:27:35;;;;;;;6.63;1.23;;;20.90;62.60;;;;;;10511872;28;20560;-34
2022/09/19 15:32:39;;;;;;;8.25;1.88;;;19.00;71.10;;;;;;10505612;28;20554;-35
2022/09/19 15:37:45;;;;;;;5.13;0.98;;;18.40;72.30;;;;;;10509400;28;20080;-35
2022/09/19 15:42:47;;;;;;;5.03;1.40;;;17.60;76.60;;;;;;10518863;28;20048;-34
2022/09/19 15:47:49;;;;;;;4.80;1.67;;;19.10;70.40;;;;;;10515797;28;20489;-37
2022/09/19 15:52:52;;;;;;;10.32;2.20;;;17.60;76.40;;;;;;10507426;28;20135;-33
2022/09/19 15:57:54;;;;;;;14.63;8.13;;;18.80;72.90;;;;;;10515236;28;20146;-35
2022/09/19 16:02:59;;;;;;;21.08;10.65;;;19.70;70.30;;;;;;10527919;28;20048;-33
2022/09/19 16:13:34;;;;;;;;;;;19.80;65.50;;;;;;10528287;28;20469;-34
2022/09/19 16:18:48;;;;;;;19.40;10.50;;;20.90;63.70;;;;;;10528344;28;19924;-33
2022/09/19 16:23:52;;;;;;;17.27;6.97;;;19.30;68.40;;;;;;10526039;28;20081;-34
2022/09/19 16:28:55;;;;;;;26.58;12.48;;;18.30;71.20;;;;;;10521926;28;20059;-35
2022/09/19 16:34:01;;;;;;;13.38;5.35;;;19.20;69.50;;;;;;10516842;28;20098;-35
2022/09/19 16:39:28;;;;;;;20.58;8.10;;;18.20;70.30;;;;;;10517967;28;20048;-34
2022/09/19 16:44:38;;;;;;;15.68;8.30;;;17.90;71.80;;;;;;10491089;28;20082;-34
2022/09/19 16:49:41;;;;;;;18.45;6.50;;;19.30;68.80;;;;;;10511656;28;20098;-34
2022/09/19 16:54:45;;;;;;;22.08;9.98;;;18.70;67.90;;;;;;10514160;28;20611;-43
2022/09/19 16:59:47;;;;;;;15.55;7.70;;;19.70;68.10;;;;;;10523748;28;20044;-42
2022/09/19 17:04:49;;;;;;;23.27;11.65;;;19.50;68.40;;;;;;10501042;28;20063;-43
2022/09/19 17:09:53;;;;;;;13.43;4.30;;;20.50;65.30;;;;;;10514390;28;20072;-44
2022/09/19 17:14:55;;;;;;;15.65;7.38;;;18.80;67.40;;;;;;10529840;28;20083;-42
2022/09/19 17:19:57;;;;;;;19.38;8.90;;;18.50;70.60;;;;;;10507155;28;20493;-43
2022/09/19 17:25:01;;;;;;;8.55;2.78;;;18.90;71.40;;;;;;10511142;28;20060;-43
2022/09/19 17:30:03;;;;;;;15.10;2.60;;;17.30;75.80;;;;;;10512320;28;20064;-41
2022/09/19 17:35:09;;;;;;;9.40;3.45;;;16.60;81.00;;;;;;10519343;28;20072;-39
2022/09/19 17:40:13;;;;;;;9.75;3.53;;;17.40;78.70;;;;;;10508409;28;20101;-39
2022/09/19 17:45:16;;;;;;;11.23;4.35;;;18.90;71.40;;;;;;10515946;28;20054;-39
2022/09/19 17:50:18;;;;;;;10.25;4.00;;;20.40;65.50;;;;;;10508750;28;20120;-42
2022/09/19 17:55:21;;;;;;;10.80;3.80;;;21.30;62.20;;;;;;10501525;28;20064;-44
2022/09/19 18:00:24;;;;;;;6.70;2.85;;;21.40;61.20;;;;;;10515934;28;20082;-40
2022/09/19 18:05:26;;;;;;;9.30;2.80;;;21.50;61.10;;;;;;10513222;28;20056;-42
2022/09/19 18:10:32;;;;;;;8.35;2.65;;;21.40;61.00;;;;;;10501886;28;20099;-40
2022/09/19 18:15:37;;;;;;;7.10;2.25;;;21.70;60.50;;;;;;10514343;28;20439;-43
2022/09/19 18:20:39;;;;;;;5.90;2.60;;;21.40;61.30;;;;;;10524683;28;20078;-43
2022/09/19 18:25:42;;;;;;;;;;;21.60;60.50;;;;;;10537148;28;20052;-40
2022/09/19 18:30:44;;;;;;;6.03;1.83;;;21.70;60.30;;;;;;10520031;28;19925;-44
2022/09/19 18:35:46;;;;;;;4.00;2.08;;;21.70;60.10;;;;;;10519583;28;20127;-42
2022/09/19 18:40:50;;;;;;;7.25;2.15;;;21.70;60.00;;;;;;10520824;28;20040;-43
2022/09/19 18:45:59;;;;;;;7.00;1.98;;;21.70;59.90;;;;;;10513992;28;20040;-44
2022/09/19 18:51:06;;;;;;;8.30;1.60;;;21.70;60.00;;;;;;10511853;28;20480;-41
2022/09/19 18:56:10;;;;;;;6.75;1.70;;;19.00;68.00;;;;;;10509379;28;20115;-40
2022/09/19 19:01:16;;;;;;;6.68;2.05;;;18.50;71.50;;;;;;10516062;28;20051;-40
2022/09/19 19:06:18;;;;;;;6.65;1.40;;;19.10;69.40;;;;;;10515320;28;20123;-40
2022/09/19 19:11:23;;;;;;;4.18;1.50;;;20.30;66.10;;;;;;10515659;28;20070;-42
2022/09/19 19:16:28;;;;;;;5.07;1.35;;;21.00;63.00;;;;;;10514545;28;20975;-44
2022/09/19 19:21:33;;;;;;;8.20;1.42;;;21.00;62.80;;;;;;10522918;28;20143;-40
2022/09/19 19:26:37;;;;;;;10.45;1.60;;;20.40;64.70;;;;;;10509048;28;20476;-42
2022/09/19 19:31:39;;;;;;;3.95;0.98;;;20.40;64.40;;;;;;10526996;28;20129;-38
2022/09/19 19:36:41;;;;;;;4.57;1.50;;;20.90;62.30;;;;;;10525883;28;20103;-38
2022/09/19 19:41:44;;;;;;;3.83;1.17;;;21.20;61.00;;;;;;10516768;28;20045;-39
2022/09/19 19:46:46;;;;;;;2.83;1.08;;;21.20;61.00;;;;;;10516789;28;20148;-40
2022/09/19 19:51:48;;;;;;;2.83;1.10;;;21.30;60.40;;;;;;10515762;28;20122;-42
2022/09/19 19:56:51;;;;;;;5.07;1.10;;;21.20;60.30;;;;;;10514573;28;20075;-41
2022/09/19 20:01:53;;;;;;;1.92;1.00;;;21.30;60.20;;;;;;10542904;28;20093;-44
2022/09/19 20:06:54;;;;;;;4.30;1.05;;;21.30;60.10;;;;;;10525422;28;20051;-42
2022/09/19 20:11:59;;;;;;;4.68;1.13;;;21.30;60.10;;;;;;10504907;28;20047;-42
2022/09/19 20:17:03;;;;;;;4.57;0.90;;;21.30;59.80;;;;;;10515291;28;20048;-41
2022/09/19 20:22:06;;;;;;;4.88;0.88;;;20.80;61.60;;;;;;10522567;28;20067;-40
2022/09/19 20:27:09;;;;;;;11.38;1.00;;;20.60;61.10;;;;;;10507488;28;20040;-43
2022/09/19 20:32:11;;;;;;;11.55;1.05;;;19.70;64.50;;;;;;10513441;28;20427;-38
2022/09/19 20:37:13;;;;;;;6.03;0.98;;;20.40;62.60;;;;;;10530142;28;20557;-44
2022/09/19 20:42:16;;;;;;;5.88;0.88;;;20.50;61.90;;;;;;10503413;28;20052;-44
2022/09/19 20:47:20;;;;;;;5.13;0.90;;;20.90;61.40;;;;;;10516508;28;20142;-44
2022/09/19 20:52:22;;;;;;;6.30;1.63;;;20.30;61.80;;;;;;10511819;28;20142;-39
2022/09/19 20:57:25;;;;;;;5.93;0.85;;;20.70;61.90;;;;;;10510202;28;20072;-42
2022/09/19 21:02:27;;;;;;;4.93;0.82;;;20.80;61.50;;;;;;10526212;28;20044;-46
2022/09/19 21:07:29;;;;;;;3.08;0.77;;;20.90;61.10;;;;;;10506670;28;20385;-43
2022/09/19 21:12:33;;;;;;;11.73;1.15;;;20.80;61.20;;;;;;10521867;28;20048;-36
2022/09/19 21:17:35;;;;;;;4.07;0.73;;;20.80;61.10;;;;;;10507161;28;20120;-40
2022/09/19 21:22:37;;;;;;;2.83;0.70;;;20.50;61.70;;;;;;10524435;28;20114;-43
2022/09/19 21:27:41;;;;;;;3.67;0.82;;;20.90;60.40;;;;;;10506734;28;20070;-43
2022/09/19 21:32:43;;;;;;;7.35;1.00;;;20.50;61.00;;;;;;10525355;28;20078;-42
2022/09/19 21:37:45;;;;;;;2.28;0.95;;;20.90;60.10;;;;;;10509362;28;20150;-42
2022/09/19 21:42:48;;;;;;;5.40;0.95;;;21.00;59.80;;;;;;10523934;28;20492;-39
2022/09/19 21:47:50;;;;;;;3.20;0.70;;;20.90;60.00;;;;;;10514388;28;20091;-41
2022/09/19 21:52:52;;;;;;;3.00;0.63;;;21.00;59.70;;;;;;10518967;28;20142;-41
2022/09/19 21:57:56;;;;;;;3.25;0.50;;;21.00;59.60;;;;;;10508814;28;20141;-39
2022/09/19 22:02:57;;;;;;;4.93;0.68;;;21.00;59.50;;;;;;10526487;28;20682;-45
2022/09/19 22:07:59;;;;;;;3.63;1.10;;;21.00;59.60;;;;;;10510573;28;20147;-46
2022/09/19 22:13:02;;;;;;;3.35;0.60;;;21.00;59.60;;;;;;10510943;28;20052;-44
2022/09/19 22:18:04;;;;;;;5.80;0.70;;;21.00;59.50;;;;;;10531952;28;20079;-41
2022/09/19 22:23:06;;;;;;;;;;;21.00;59.50;;;;;;10524259;28;20135;-39
2022/09/19 22:28:09;;;;;;;3.42;0.70;;;20.90;59.50;;;;;;10510076;28;20014;-41
2022/09/19 22:33:12;;;;;;;2.38;0.60;;;21.00;59.40;;;;;;10512802;28;20458;-42
2022/09/19 22:38:14;;;;;;;2.03;0.50;;;20.90;59.30;;;;;;10539830;28;20097;-40
2022/09/19 22:43:17;;;;;;;4.88;0.50;;;20.90;59.50;;;;;;10522565;28;20095;-39
2022/09/19 22:48:19;;;;;;;3.05;0.60;;;19.00;65.70;;;;;;10514809;28;20055;-35
2022/09/19 22:53:21;;;;;;;1.90;0.73;;;20.40;61.30;;;;;;10505425;28;20473;-43
2022/09/19 22:58:27;;;;;;;2.70;0.65;;;20.60;60.20;;;;;;10506405;28;20067;-38
2022/09/19 23:03:30;;;;;;;1.67;0.40;;;20.70;60.10;;;;;;10521613;28;20047;-38
2022/09/19 23:08:33;;;;;;;2.55;0.50;;;20.80;59.70;;;;;;10502936;28;20059;-40
2022/09/19 23:13:48;;;;;;;1.58;0.50;;;20.80;59.70;;;;;;10503798;28;20048;-37
2022/09/19 23:18:52;;;;;;;2.17;0.47;;;20.80;59.60;;;;;;10509902;28;20422;-43
2022/09/19 23:23:54;;;;;;;3.92;0.75;;;20.80;59.60;;;;;;10513369;28;20128;-43
2022/09/19 23:28:58;;;;;;;0.88;0.60;;;20.80;59.60;;;;;;10521176;28;20138;-43
2022/09/19 23:34:00;;;;;;;5.70;1.17;;;20.80;59.60;;;;;;10527273;28;20071;-42
2022/09/19 23:39:03;;;;;;;2.83;0.68;;;20.80;59.60;;;;;;10535224;28;20071;-43
2022/09/19 23:44:06;;;;;;;3.50;0.65;;;20.80;59.70;;;;;;10526442;28;20053;-38
2022/09/19 23:49:08;;;;;;;1.90;0.65;;;20.80;59.60;;;;;;10515666;28;20094;-42
2022/09/19 23:54:12;;;;;;;4.35;0.50;;;20.70;59.70;;;;;;10531873;28;20130;-42
2022/09/19 23:59:16;;;;;;;2.28;0.52;;;20.70;59.60;;;;;;10535434;28;20104;-40
